sensor_id;sensor_type;location;lat;lon;timestamp;P1;durP1;ratioP1;P2;durP2;ratioP2
7527;SDS011;3805;49.006;8.514;2022-12-24T00:02:34;7.20;;;2.80;;
7527;SDS011;3805;49.006;8.514;2022-12-24T00:05:23;6.77;;;3.83;;
7527;SDS011;3805;49.006;8.514;2022-12-24T00:08:11;11.67;;;4.03;;
7527;SDS011;3805;49.006;8.514;2022-12-24T00:11:00;8.03;;;2.60;;
7527;SDS011;3805;49.006;8.514;2022-12-24T00:13:50;7.73;;;3.97;;
7527;SDS011;3805;49.006;8.514;2022-12-24T00:16:38;8.40;;;3.30;;
7527;SDS011;3805;49.006;8.514;2022-12-24T00:19:27;8.60;;;2.83;;
7527;SDS011;3805;49.006;8.514;2022-12-24T00:22:15;7.30;;;3.70;;
7527;SDS011;3805;49.006;8.514;2022-12-24T00:25:04;5.83;;;3.20;;
7527;SDS011;3805;49.006;8.514;2022-12-24T00:27:53;8.00;;;3.13;;
7527;SDS011;3805;49.006;8.514;2022-12-24T00:30:43;8.53;;;3.20;;
7527;SDS011;3805;49.006;8.514;2022-12-24T00:33:32;11.83;;;3.27;;
7527;SDS011;3805;49.006;8.514;2022-12-24T00:36:20;8.43;;;3.83;;
7527;SDS011;3805;49.006;8.514;2022-12-24T00:39:08;7.33;;;2.70;;
7527;SDS011;3805;49.006;8.514;2022-12-24T00:41:57;15.10;;;3.87;;
7527;SDS011;3805;49.006;8.514;2022-12-24T00:44:46;9.20;;;4.30;;
7527;SDS011;3805;49.006;8.514;2022-12-24T00:47:35;13.73;;;3.97;;
7527;SDS011;3805;49.006;8.514;2022-12-24T00:50:24;10.10;;;3.50;;
7527;SDS011;3805;49.006;8.514;2022-12-24T00:53:12;10.23;;;3.27;;
7527;SDS011;3805;49.006;8.514;2022-12-24T00:56:01;15.43;;;4.20;;
7527;SDS011;3805;49.006;8.514;2022-12-24T00:58:49;9.03;;;4.00;;
7527;SDS011;3805;49.006;8.514;2022-12-24T01:01:38;9.17;;;3.20;;
7527;SDS011;3805;49.006;8.514;2022-12-24T01:04:28;8.00;;;3.40;;
7527;SDS011;3805;49.006;8.514;2022-12-24T01:07:34;4.37;;;3.10;;
7527;SDS011;3805;49.006;8.514;2022-12-24T01:10:23;10.17;;;3.47;;
7527;SDS011;3805;49.006;8.514;2022-12-24T01:13:11;17.27;;;3.50;;
7527;SDS011;3805;49.006;8.514;2022-12-24T01:16:00;7.73;;;2.90;;
7527;SDS011;3805;49.006;8.514;2022-12-24T01:18:48;11.77;;;3.60;;
7527;SDS011;3805;49.006;8.514;2022-12-24T01:21:38;7.60;;;3.23;;
7527;SDS011;3805;49.006;8.514;2022-12-24T01:24:27;12.07;;;3.57;;
7527;SDS011;3805;49.006;8.514;2022-12-24T01:27:15;13.93;;;3.90;;
7527;SDS011;3805;49.006;8.514;2022-12-24T01:30:04;14.13;;;4.50;;
7527;SDS011;3805;49.006;8.514;2022-12-24T01:32:54;7.60;;;3.33;;
7527;SDS011;3805;49.006;8.514;2022-12-24T01:35:42;9.97;;;3.37;;
7527;SDS011;3805;49.006;8.514;2022-12-24T01:38:32;11.33;;;3.47;;
7527;SDS011;3805;49.006;8.514;2022-12-24T01:41:21;13.83;;;3.63;;
7527;SDS011;3805;49.006;8.514;2022-12-24T01:44:28;10.57;;;3.60;;
7527;SDS011;3805;49.006;8.514;2022-12-24T01:47:24;8.57;;;4.00;;
7527;SDS011;3805;49.006;8.514;2022-12-24T01:50:14;6.50;;;4.07;;
7527;SDS011;3805;49.006;8.514;2022-12-24T01:53:04;9.80;;;3.80;;
7527;SDS011;3805;49.006;8.514;2022-12-24T01:55:55;8.03;;;3.13;;
7527;SDS011;3805;49.006;8.514;2022-12-24T01:58:45;10.00;;;3.83;;
7527;SDS011;3805;49.006;8.514;2022-12-24T02:01:34;9.50;;;3.87;;
7527;SDS011;3805;49.006;8.514;2022-12-24T02:04:27;13.33;;;3.97;;
7527;SDS011;3805;49.006;8.514;2022-12-24T02:07:19;7.30;;;3.83;;
7527;SDS011;3805;49.006;8.514;2022-12-24T02:10:08;9.47;;;3.50;;
7527;SDS011;3805;49.006;8.514;2022-12-24T02:13:01;15.93;;;4.13;;
7527;SDS011;3805;49.006;8.514;2022-12-24T02:15:55;13.03;;;3.40;;
7527;SDS011;3805;49.006;8.514;2022-12-24T02:18:49;11.17;;;3.97;;
7527;SDS011;3805;49.006;8.514;2022-12-24T02:21:47;13.07;;;3.83;;
7527;SDS011;3805;49.006;8.514;2022-12-24T02:24:45;6.80;;;3.60;;
7527;SDS011;3805;49.006;8.514;2022-12-24T02:27:45;12.80;;;4.03;;
7527;SDS011;3805;49.006;8.514;2022-12-24T02:30:44;10.03;;;3.30;;
7527;SDS011;3805;49.006;8.514;2022-12-24T02:33:36;9.70;;;4.00;;
7527;SDS011;3805;49.006;8.514;2022-12-24T02:36:27;9.60;;;3.30;;
7527;SDS011;3805;49.006;8.514;2022-12-24T02:39:19;6.30;;;3.67;;
7527;SDS011;3805;49.006;8.514;2022-12-24T02:42:10;6.60;;;3.90;;
7527;SDS011;3805;49.006;8.514;2022-12-24T02:45:00;8.90;;;3.60;;
7527;SDS011;3805;49.006;8.514;2022-12-24T02:47:52;10.90;;;3.97;;
7527;SDS011;3805;49.006;8.514;2022-12-24T02:50:53;9.97;;;3.90;;
7527;SDS011;3805;49.006;8.514;2022-12-24T02:53:44;9.90;;;3.80;;
7527;SDS011;3805;49.006;8.514;2022-12-24T02:56:40;10.00;;;4.43;;
7527;SDS011;3805;49.006;8.514;2022-12-24T03:03:00;9.20;;;3.67;;
7527;SDS011;3805;49.006;8.514;2022-12-24T03:05:59;9.43;;;3.20;;
7527;SDS011;3805;49.006;8.514;2022-12-24T03:08:53;6.90;;;3.40;;
7527;SDS011;3805;49.006;8.514;2022-12-24T03:11:47;7.77;;;3.90;;
7527;SDS011;3805;49.006;8.514;2022-12-24T03:14:42;16.47;;;6.10;;
7527;SDS011;3805;49.006;8.514;2022-12-24T03:17:31;9.37;;;3.97;;
7527;SDS011;3805;49.006;8.514;2022-12-24T03:20:24;10.50;;;3.90;;
7527;SDS011;3805;49.006;8.514;2022-12-24T03:23:14;6.10;;;3.73;;
7527;SDS011;3805;49.006;8.514;2022-12-24T03:26:04;7.67;;;3.90;;
7527;SDS011;3805;49.006;8.514;2022-12-24T03:28:55;10.13;;;4.10;;
7527;SDS011;3805;49.006;8.514;2022-12-24T03:31:44;11.77;;;4.20;;
7527;SDS011;3805;49.006;8.514;2022-12-24T03:34:34;12.10;;;4.03;;
7527;SDS011;3805;49.006;8.514;2022-12-24T03:37:24;16.77;;;4.00;;
7527;SDS011;3805;49.006;8.514;2022-12-24T03:40:13;9.70;;;4.07;;
7527;SDS011;3805;49.006;8.514;2022-12-24T03:43:01;10.30;;;4.00;;
7527;SDS011;3805;49.006;8.514;2022-12-24T03:45:50;14.17;;;4.77;;
7527;SDS011;3805;49.006;8.514;2022-12-24T03:48:38;8.93;;;3.67;;
7527;SDS011;3805;49.006;8.514;2022-12-24T03:51:27;13.67;;;4.27;;
7527;SDS011;3805;49.006;8.514;2022-12-24T03:54:16;15.10;;;4.57;;
7527;SDS011;3805;49.006;8.514;2022-12-24T03:57:05;13.67;;;4.70;;
7527;SDS011;3805;49.006;8.514;2022-12-24T03:59:54;14.93;;;4.17;;
7527;SDS011;3805;49.006;8.514;2022-12-24T04:02:42;12.70;;;4.93;;
7527;SDS011;3805;49.006;8.514;2022-12-24T04:05:31;13.00;;;4.47;;
7527;SDS011;3805;49.006;8.514;2022-12-24T04:08:19;14.30;;;4.70;;
7527;SDS011;3805;49.006;8.514;2022-12-24T04:11:10;10.00;;;5.17;;
7527;SDS011;3805;49.006;8.514;2022-12-24T04:14:00;16.53;;;5.47;;
7527;SDS011;3805;49.006;8.514;2022-12-24T04:16:48;22.43;;;5.87;;
7527;SDS011;3805;49.006;8.514;2022-12-24T04:19:37;11.17;;;4.33;;
7527;SDS011;3805;49.006;8.514;2022-12-24T04:22:25;16.80;;;5.00;;
7527;SDS011;3805;49.006;8.514;2022-12-24T04:25:14;17.47;;;4.77;;
7527;SDS011;3805;49.006;8.514;2022-12-24T04:28:04;11.90;;;4.07;;
7527;SDS011;3805;49.006;8.514;2022-12-24T04:30:56;10.13;;;4.10;;
7527;SDS011;3805;49.006;8.514;2022-12-24T04:33:45;17.93;;;4.80;;
7527;SDS011;3805;49.006;8.514;2022-12-24T04:36:34;12.10;;;4.67;;
7527;SDS011;3805;49.006;8.514;2022-12-24T04:39:22;10.97;;;4.63;;
7527;SDS011;3805;49.006;8.514;2022-12-24T04:42:11;7.87;;;4.43;;
7527;SDS011;3805;49.006;8.514;2022-12-24T04:45:01;16.83;;;5.77;;
7527;SDS011;3805;49.006;8.514;2022-12-24T04:47:49;10.83;;;4.10;;
7527;SDS011;3805;49.006;8.514;2022-12-24T04:50:38;15.13;;;3.87;;
7527;SDS011;3805;49.006;8.514;2022-12-24T04:53:26;13.83;;;3.90;;
7527;SDS011;3805;49.006;8.514;2022-12-24T04:56:16;17.93;;;4.70;;
7527;SDS011;3805;49.006;8.514;2022-12-24T04:59:06;13.57;;;4.30;;
7527;SDS011;3805;49.006;8.514;2022-12-24T05:01:56;10.60;;;3.97;;
7527;SDS011;3805;49.006;8.514;2022-12-24T05:04:44;18.03;;;4.60;;
7527;SDS011;3805;49.006;8.514;2022-12-24T05:07:33;13.40;;;4.17;;
7527;SDS011;3805;49.006;8.514;2022-12-24T05:10:21;12.23;;;4.57;;
7527;SDS011;3805;49.006;8.514;2022-12-24T05:13:10;16.23;;;4.70;;
7527;SDS011;3805;49.006;8.514;2022-12-24T05:15:58;9.33;;;3.70;;
7527;SDS011;3805;49.006;8.514;2022-12-24T05:18:48;11.97;;;4.57;;
7527;SDS011;3805;49.006;8.514;2022-12-24T05:21:37;10.33;;;4.00;;
7527;SDS011;3805;49.006;8.514;2022-12-24T05:24:26;21.63;;;4.70;;
7527;SDS011;3805;49.006;8.514;2022-12-24T05:27:32;13.43;;;4.50;;
7527;SDS011;3805;49.006;8.514;2022-12-24T05:30:20;15.13;;;4.30;;
7527;SDS011;3805;49.006;8.514;2022-12-24T05:33:09;12.60;;;4.03;;
7527;SDS011;3805;49.006;8.514;2022-12-24T05:35:58;13.53;;;4.70;;
7527;SDS011;3805;49.006;8.514;2022-12-24T05:38:47;15.70;;;4.37;;
7527;SDS011;3805;49.006;8.514;2022-12-24T05:41:36;15.10;;;4.40;;
7527;SDS011;3805;49.006;8.514;2022-12-24T05:44:24;7.43;;;3.70;;
7527;SDS011;3805;49.006;8.514;2022-12-24T05:47:12;15.23;;;3.77;;
7527;SDS011;3805;49.006;8.514;2022-12-24T05:50:01;12.93;;;4.50;;
7527;SDS011;3805;49.006;8.514;2022-12-24T05:52:51;22.47;;;3.87;;
7527;SDS011;3805;49.006;8.514;2022-12-24T05:55:39;19.90;;;5.40;;
7527;SDS011;3805;49.006;8.514;2022-12-24T05:58:28;9.40;;;3.53;;
7527;SDS011;3805;49.006;8.514;2022-12-24T06:01:16;13.30;;;3.60;;
7527;SDS011;3805;49.006;8.514;2022-12-24T06:04:05;17.53;;;4.73;;
7527;SDS011;3805;49.006;8.514;2022-12-24T06:06:53;13.47;;;4.13;;
7527;SDS011;3805;49.006;8.514;2022-12-24T06:09:43;8.73;;;4.30;;
7527;SDS011;3805;49.006;8.514;2022-12-24T06:12:32;14.30;;;4.20;;
7527;SDS011;3805;49.006;8.514;2022-12-24T06:15:20;12.60;;;4.20;;
7527;SDS011;3805;49.006;8.514;2022-12-24T06:18:10;17.03;;;3.90;;
7527;SDS011;3805;49.006;8.514;2022-12-24T06:20:59;11.97;;;4.20;;
7527;SDS011;3805;49.006;8.514;2022-12-24T06:23:47;16.83;;;5.47;;
7527;SDS011;3805;49.006;8.514;2022-12-24T06:26:37;12.00;;;5.03;;
7527;SDS011;3805;49.006;8.514;2022-12-24T06:29:26;17.17;;;5.60;;
7527;SDS011;3805;49.006;8.514;2022-12-24T06:32:14;12.57;;;4.40;;
7527;SDS011;3805;49.006;8.514;2022-12-24T06:35:03;15.43;;;4.17;;
7527;SDS011;3805;49.006;8.514;2022-12-24T06:37:52;17.10;;;4.80;;
7527;SDS011;3805;49.006;8.514;2022-12-24T06:40:41;12.63;;;4.00;;
7527;SDS011;3805;49.006;8.514;2022-12-24T06:43:31;11.57;;;4.80;;
7527;SDS011;3805;49.006;8.514;2022-12-24T06:46:20;17.23;;;4.37;;
7527;SDS011;3805;49.006;8.514;2022-12-24T06:49:09;10.23;;;4.00;;
7527;SDS011;3805;49.006;8.514;2022-12-24T06:51:57;12.17;;;4.10;;
7527;SDS011;3805;49.006;8.514;2022-12-24T06:54:46;15.40;;;3.70;;
7527;SDS011;3805;49.006;8.514;2022-12-24T06:57:34;18.00;;;4.53;;
7527;SDS011;3805;49.006;8.514;2022-12-24T07:00:24;11.10;;;4.77;;
7527;SDS011;3805;49.006;8.514;2022-12-24T07:03:13;12.43;;;4.30;;
7527;SDS011;3805;49.006;8.514;2022-12-24T07:06:01;11.20;;;4.47;;
7527;SDS011;3805;49.006;8.514;2022-12-24T07:08:50;8.67;;;4.53;;
7527;SDS011;3805;49.006;8.514;2022-12-24T07:11:38;13.83;;;4.80;;
7527;SDS011;3805;49.006;8.514;2022-12-24T07:14:28;10.30;;;4.37;;
7527;SDS011;3805;49.006;8.514;2022-12-24T07:17:18;9.50;;;4.20;;
7527;SDS011;3805;49.006;8.514;2022-12-24T07:20:07;13.50;;;4.20;;
7527;SDS011;3805;49.006;8.514;2022-12-24T07:22:59;15.23;;;4.50;;
7527;SDS011;3805;49.006;8.514;2022-12-24T07:25:47;19.07;;;5.00;;
7527;SDS011;3805;49.006;8.514;2022-12-24T07:28:36;16.87;;;4.50;;
7527;SDS011;3805;49.006;8.514;2022-12-24T07:31:25;13.27;;;4.73;;
7527;SDS011;3805;49.006;8.514;2022-12-24T07:34:15;17.17;;;4.60;;
7527;SDS011;3805;49.006;8.514;2022-12-24T07:37:03;15.27;;;5.30;;
7527;SDS011;3805;49.006;8.514;2022-12-24T07:39:52;18.40;;;5.80;;
7527;SDS011;3805;49.006;8.514;2022-12-24T07:42:40;10.87;;;5.40;;
7527;SDS011;3805;49.006;8.514;2022-12-24T07:45:29;12.77;;;4.47;;
7527;SDS011;3805;49.006;8.514;2022-12-24T07:48:17;17.00;;;5.30;;
7527;SDS011;3805;49.006;8.514;2022-12-24T07:51:07;18.47;;;5.60;;
7527;SDS011;3805;49.006;8.514;2022-12-24T07:53:56;20.70;;;6.07;;
7527;SDS011;3805;49.006;8.514;2022-12-24T07:56:44;21.90;;;4.43;;
7527;SDS011;3805;49.006;8.514;2022-12-24T07:59:33;10.90;;;4.50;;
7527;SDS011;3805;49.006;8.514;2022-12-24T08:02:22;11.50;;;4.20;;
7527;SDS011;3805;49.006;8.514;2022-12-24T08:05:11;15.07;;;5.10;;
7527;SDS011;3805;49.006;8.514;2022-12-24T08:08:01;9.90;;;3.67;;
7527;SDS011;3805;49.006;8.514;2022-12-24T08:10:49;14.67;;;5.60;;
7527;SDS011;3805;49.006;8.514;2022-12-24T08:13:38;16.30;;;5.10;;
7527;SDS011;3805;49.006;8.514;2022-12-24T08:16:27;23.13;;;5.80;;
7527;SDS011;3805;49.006;8.514;2022-12-24T08:19:15;14.57;;;6.00;;
7527;SDS011;3805;49.006;8.514;2022-12-24T08:22:04;9.63;;;4.23;;
7527;SDS011;3805;49.006;8.514;2022-12-24T08:24:54;10.73;;;5.27;;
7527;SDS011;3805;49.006;8.514;2022-12-24T08:27:43;12.13;;;4.50;;
7527;SDS011;3805;49.006;8.514;2022-12-24T08:30:32;10.80;;;4.00;;
7527;SDS011;3805;49.006;8.514;2022-12-24T08:33:20;10.10;;;4.10;;
7527;SDS011;3805;49.006;8.514;2022-12-24T08:36:09;10.03;;;4.80;;
7527;SDS011;3805;49.006;8.514;2022-12-24T08:38:57;14.70;;;5.60;;
7527;SDS011;3805;49.006;8.514;2022-12-24T08:41:50;12.83;;;5.07;;
7527;SDS011;3805;49.006;8.514;2022-12-24T08:44:39;19.47;;;6.47;;
7527;SDS011;3805;49.006;8.514;2022-12-24T08:47:27;13.33;;;4.40;;
7527;SDS011;3805;49.006;8.514;2022-12-24T08:50:16;9.97;;;3.70;;
7527;SDS011;3805;49.006;8.514;2022-12-24T08:53:04;16.93;;;4.80;;
7527;SDS011;3805;49.006;8.514;2022-12-24T08:55:59;12.50;;;5.00;;
7527;SDS011;3805;49.006;8.514;2022-12-24T08:58:50;11.20;;;5.20;;
7527;SDS011;3805;49.006;8.514;2022-12-24T09:01:38;8.63;;;4.57;;
7527;SDS011;3805;49.006;8.514;2022-12-24T09:04:27;10.97;;;4.10;;
7527;SDS011;3805;49.006;8.514;2022-12-24T09:07:15;8.03;;;3.70;;
7527;SDS011;3805;49.006;8.514;2022-12-24T09:10:04;11.40;;;3.83;;
7527;SDS011;3805;49.006;8.514;2022-12-24T09:12:54;11.90;;;4.30;;
7527;SDS011;3805;49.006;8.514;2022-12-24T09:15:50;13.83;;;4.87;;
7527;SDS011;3805;49.006;8.514;2022-12-24T09:18:40;12.00;;;4.63;;
7527;SDS011;3805;49.006;8.514;2022-12-24T09:21:28;10.47;;;4.63;;
7527;SDS011;3805;49.006;8.514;2022-12-24T09:24:17;10.60;;;4.13;;
7527;SDS011;3805;49.006;8.514;2022-12-24T09:27:05;10.73;;;3.20;;
7527;SDS011;3805;49.006;8.514;2022-12-24T09:29:54;11.63;;;4.00;;
7527;SDS011;3805;49.006;8.514;2022-12-24T09:32:44;12.20;;;3.87;;
7527;SDS011;3805;49.006;8.514;2022-12-24T09:35:32;13.50;;;4.50;;
7527;SDS011;3805;49.006;8.514;2022-12-24T09:38:21;13.53;;;5.23;;
7527;SDS011;3805;49.006;8.514;2022-12-24T09:41:10;11.70;;;5.17;;
7527;SDS011;3805;49.006;8.514;2022-12-24T09:44:01;12.03;;;4.30;;
7527;SDS011;3805;49.006;8.514;2022-12-24T09:47:08;15.43;;;4.93;;
7527;SDS011;3805;49.006;8.514;2022-12-24T09:50:01;17.47;;;4.70;;
7527;SDS011;3805;49.006;8.514;2022-12-24T09:52:51;14.27;;;4.43;;
7527;SDS011;3805;49.006;8.514;2022-12-24T09:55:41;15.60;;;4.90;;
7527;SDS011;3805;49.006;8.514;2022-12-24T09:58:33;15.20;;;5.10;;
7527;SDS011;3805;49.006;8.514;2022-12-24T10:01:23;14.30;;;5.97;;
7527;SDS011;3805;49.006;8.514;2022-12-24T10:04:13;16.57;;;5.13;;
7527;SDS011;3805;49.006;8.514;2022-12-24T10:07:04;23.43;;;8.80;;
7527;SDS011;3805;49.006;8.514;2022-12-24T10:10:00;14.77;;;5.30;;
7527;SDS011;3805;49.006;8.514;2022-12-24T10:12:53;9.27;;;4.70;;
7527;SDS011;3805;49.006;8.514;2022-12-24T10:15:48;12.73;;;4.93;;
7527;SDS011;3805;49.006;8.514;2022-12-24T10:18:43;11.53;;;4.83;;
7527;SDS011;3805;49.006;8.514;2022-12-24T10:21:40;22.77;;;5.10;;
7527;SDS011;3805;49.006;8.514;2022-12-24T10:24:37;12.73;;;6.07;;
7527;SDS011;3805;49.006;8.514;2022-12-24T10:27:37;15.03;;;5.37;;
7527;SDS011;3805;49.006;8.514;2022-12-24T10:30:26;17.73;;;5.90;;
7527;SDS011;3805;49.006;8.514;2022-12-24T10:33:17;10.67;;;5.13;;
7527;SDS011;3805;49.006;8.514;2022-12-24T10:36:07;12.70;;;4.23;;
7527;SDS011;3805;49.006;8.514;2022-12-24T10:38:58;17.07;;;5.00;;
7527;SDS011;3805;49.006;8.514;2022-12-24T10:41:50;14.80;;;5.40;;
7527;SDS011;3805;49.006;8.514;2022-12-24T10:44:41;18.30;;;5.93;;
7527;SDS011;3805;49.006;8.514;2022-12-24T10:47:33;14.80;;;5.20;;
7527;SDS011;3805;49.006;8.514;2022-12-24T10:50:27;23.63;;;5.33;;
7527;SDS011;3805;49.006;8.514;2022-12-24T10:53:21;15.93;;;5.27;;
7527;SDS011;3805;49.006;8.514;2022-12-24T10:56:12;20.67;;;6.70;;
7527;SDS011;3805;49.006;8.514;2022-12-24T10:59:04;14.97;;;5.70;;
7527;SDS011;3805;49.006;8.514;2022-12-24T11:01:53;13.00;;;5.33;;
7527;SDS011;3805;49.006;8.514;2022-12-24T11:04:50;19.77;;;5.67;;
7527;SDS011;3805;49.006;8.514;2022-12-24T11:07:39;14.37;;;5.40;;
7527;SDS011;3805;49.006;8.514;2022-12-24T11:10:27;14.07;;;4.50;;
7527;SDS011;3805;49.006;8.514;2022-12-24T11:13:18;10.73;;;5.03;;
7527;SDS011;3805;49.006;8.514;2022-12-24T11:16:28;15.60;;;6.10;;
7527;SDS011;3805;49.006;8.514;2022-12-24T11:19:18;15.73;;;5.43;;
7527;SDS011;3805;49.006;8.514;2022-12-24T11:22:20;10.60;;;5.40;;
7527;SDS011;3805;49.006;8.514;2022-12-24T11:25:18;21.43;;;6.40;;
7527;SDS011;3805;49.006;8.514;2022-12-24T11:28:12;17.23;;;5.33;;
7527;SDS011;3805;49.006;8.514;2022-12-24T11:31:16;13.50;;;5.90;;
7527;SDS011;3805;49.006;8.514;2022-12-24T11:34:20;13.17;;;5.47;;
7527;SDS011;3805;49.006;8.514;2022-12-24T11:37:13;15.00;;;5.30;;
7527;SDS011;3805;49.006;8.514;2022-12-24T11:40:04;14.60;;;4.67;;
7527;SDS011;3805;49.006;8.514;2022-12-24T11:42:54;15.43;;;5.30;;
7527;SDS011;3805;49.006;8.514;2022-12-24T11:45:47;23.80;;;5.47;;
7527;SDS011;3805;49.006;8.514;2022-12-24T11:48:37;13.40;;;5.67;;
7527;SDS011;3805;49.006;8.514;2022-12-24T11:51:27;12.10;;;5.20;;
7527;SDS011;3805;49.006;8.514;2022-12-24T11:54:16;15.17;;;5.50;;
7527;SDS011;3805;49.006;8.514;2022-12-24T11:57:07;14.77;;;4.93;;
7527;SDS011;3805;49.006;8.514;2022-12-24T11:59:56;12.27;;;4.70;;
7527;SDS011;3805;49.006;8.514;2022-12-24T12:02:45;11.03;;;4.40;;
7527;SDS011;3805;49.006;8.514;2022-12-24T12:05:34;15.43;;;5.67;;
7527;SDS011;3805;49.006;8.514;2022-12-24T12:08:27;15.00;;;4.70;;
7527;SDS011;3805;49.006;8.514;2022-12-24T12:11:16;14.30;;;5.47;;
7527;SDS011;3805;49.006;8.514;2022-12-24T12:14:05;22.50;;;5.60;;
7527;SDS011;3805;49.006;8.514;2022-12-24T12:16:57;15.30;;;4.93;;
7527;SDS011;3805;49.006;8.514;2022-12-24T12:19:51;12.47;;;5.30;;
7527;SDS011;3805;49.006;8.514;2022-12-24T12:22:44;13.73;;;5.33;;
7527;SDS011;3805;49.006;8.514;2022-12-24T12:25:40;11.80;;;6.30;;
7527;SDS011;3805;49.006;8.514;2022-12-24T12:28:32;16.80;;;5.70;;
7527;SDS011;3805;49.006;8.514;2022-12-24T12:31:25;11.30;;;4.60;;
7527;SDS011;3805;49.006;8.514;2022-12-24T12:34:17;15.53;;;5.20;;
7527;SDS011;3805;49.006;8.514;2022-12-24T12:37:09;17.03;;;5.80;;
7527;SDS011;3805;49.006;8.514;2022-12-24T12:40:01;18.20;;;5.50;;
7527;SDS011;3805;49.006;8.514;2022-12-24T12:42:55;14.40;;;4.87;;
7527;SDS011;3805;49.006;8.514;2022-12-24T12:45:49;15.60;;;4.90;;
7527;SDS011;3805;49.006;8.514;2022-12-24T12:48:55;17.57;;;5.23;;
7527;SDS011;3805;49.006;8.514;2022-12-24T12:51:52;14.50;;;4.07;;
7527;SDS011;3805;49.006;8.514;2022-12-24T12:54:47;12.00;;;4.13;;
7527;SDS011;3805;49.006;8.514;2022-12-24T12:57:42;16.57;;;4.70;;
7527;SDS011;3805;49.006;8.514;2022-12-24T13:00:34;11.17;;;4.53;;
7527;SDS011;3805;49.006;8.514;2022-12-24T13:03:43;15.67;;;6.00;;
7527;SDS011;3805;49.006;8.514;2022-12-24T13:10:30;10.43;;;4.73;;
7527;SDS011;3805;49.006;8.514;2022-12-24T13:13:43;16.70;;;4.97;;
7527;SDS011;3805;49.006;8.514;2022-12-24T13:20:19;11.47;;;3.80;;
7527;SDS011;3805;49.006;8.514;2022-12-24T13:23:11;8.53;;;3.93;;
7527;SDS011;3805;49.006;8.514;2022-12-24T13:26:01;7.03;;;3.90;;
7527;SDS011;3805;49.006;8.514;2022-12-24T13:29:11;8.20;;;4.70;;
7527;SDS011;3805;49.006;8.514;2022-12-24T13:32:37;7.90;;;4.57;;
7527;SDS011;3805;49.006;8.514;2022-12-24T13:35:37;11.00;;;4.07;;
7527;SDS011;3805;49.006;8.514;2022-12-24T13:38:41;19.57;;;5.37;;
7527;SDS011;3805;49.006;8.514;2022-12-24T13:44:43;14.77;;;4.57;;
7527;SDS011;3805;49.006;8.514;2022-12-24T13:47:32;12.87;;;4.83;;
7527;SDS011;3805;49.006;8.514;2022-12-24T13:50:22;17.10;;;8.27;;
7527;SDS011;3805;49.006;8.514;2022-12-24T13:53:19;14.10;;;5.60;;
7527;SDS011;3805;49.006;8.514;2022-12-24T13:56:19;9.13;;;5.63;;
7527;SDS011;3805;49.006;8.514;2022-12-24T13:59:11;14.00;;;5.80;;
7527;SDS011;3805;49.006;8.514;2022-12-24T14:02:14;10.80;;;5.13;;
7527;SDS011;3805;49.006;8.514;2022-12-24T14:05:06;11.83;;;4.20;;
7527;SDS011;3805;49.006;8.514;2022-12-24T14:08:09;9.80;;;4.80;;
7527;SDS011;3805;49.006;8.514;2022-12-24T14:11:04;10.47;;;4.07;;
7527;SDS011;3805;49.006;8.514;2022-12-24T14:17:19;9.30;;;3.87;;
7527;SDS011;3805;49.006;8.514;2022-12-24T14:20:10;12.73;;;4.70;;
7527;SDS011;3805;49.006;8.514;2022-12-24T14:23:00;8.57;;;4.10;;
7527;SDS011;3805;49.006;8.514;2022-12-24T14:25:52;12.43;;;4.43;;
7527;SDS011;3805;49.006;8.514;2022-12-24T14:28:42;10.17;;;3.43;;
7527;SDS011;3805;49.006;8.514;2022-12-24T14:31:33;8.30;;;3.83;;
7527;SDS011;3805;49.006;8.514;2022-12-24T14:34:22;13.93;;;4.67;;
7527;SDS011;3805;49.006;8.514;2022-12-24T14:37:10;9.93;;;5.10;;
7527;SDS011;3805;49.006;8.514;2022-12-24T14:40:00;16.03;;;5.73;;
7527;SDS011;3805;49.006;8.514;2022-12-24T14:42:52;6.90;;;4.77;;
7527;SDS011;3805;49.006;8.514;2022-12-24T14:45:44;13.23;;;5.27;;
7527;SDS011;3805;49.006;8.514;2022-12-24T14:48:36;10.00;;;5.13;;
7527;SDS011;3805;49.006;8.514;2022-12-24T14:51:30;12.47;;;6.10;;
7527;SDS011;3805;49.006;8.514;2022-12-24T14:54:30;9.90;;;6.10;;
7527;SDS011;3805;49.006;8.514;2022-12-24T14:57:21;10.93;;;7.07;;
7527;SDS011;3805;49.006;8.514;2022-12-24T15:00:18;11.10;;;6.63;;
7527;SDS011;3805;49.006;8.514;2022-12-24T15:03:09;11.20;;;6.77;;
7527;SDS011;3805;49.006;8.514;2022-12-24T15:06:01;17.27;;;6.20;;
7527;SDS011;3805;49.006;8.514;2022-12-24T15:08:51;11.37;;;5.90;;
7527;SDS011;3805;49.006;8.514;2022-12-24T15:11:42;10.03;;;4.53;;
7527;SDS011;3805;49.006;8.514;2022-12-24T15:14:33;9.57;;;4.63;;
7527;SDS011;3805;49.006;8.514;2022-12-24T15:17:29;10.03;;;5.37;;
7527;SDS011;3805;49.006;8.514;2022-12-24T15:20:19;9.93;;;5.63;;
7527;SDS011;3805;49.006;8.514;2022-12-24T15:23:15;13.17;;;5.60;;
7527;SDS011;3805;49.006;8.514;2022-12-24T15:26:07;10.90;;;6.37;;
7527;SDS011;3805;49.006;8.514;2022-12-24T15:28:40;15.23;;;6.53;;
7527;SDS011;3805;49.006;8.514;2022-12-24T15:31:10;10.40;;;6.70;;
7527;SDS011;3805;49.006;8.514;2022-12-24T15:33:45;8.10;;;4.90;;
7527;SDS011;3805;49.006;8.514;2022-12-24T15:36:16;11.97;;;5.57;;
7527;SDS011;3805;49.006;8.514;2022-12-24T15:38:55;13.60;;;6.67;;
7527;SDS011;3805;49.006;8.514;2022-12-24T15:41:27;33.03;;;24.60;;
7527;SDS011;3805;49.006;8.514;2022-12-24T15:44:00;26.13;;;17.63;;
7527;SDS011;3805;49.006;8.514;2022-12-24T15:46:31;18.33;;;12.77;;
7527;SDS011;3805;49.006;8.514;2022-12-24T15:49:03;18.67;;;8.73;;
7527;SDS011;3805;49.006;8.514;2022-12-24T15:51:34;15.37;;;8.70;;
7527;SDS011;3805;49.006;8.514;2022-12-24T15:54:09;14.60;;;7.40;;
7527;SDS011;3805;49.006;8.514;2022-12-24T15:56:40;10.77;;;7.20;;
7527;SDS011;3805;49.006;8.514;2022-12-24T15:59:12;12.33;;;7.87;;
7527;SDS011;3805;49.006;8.514;2022-12-24T16:02:24;14.57;;;8.70;;
7527;SDS011;3805;49.006;8.514;2022-12-24T16:07:59;17.33;;;8.87;;
7527;SDS011;3805;49.006;8.514;2022-12-24T16:10:34;17.00;;;11.60;;
7527;SDS011;3805;49.006;8.514;2022-12-24T16:13:12;20.83;;;12.10;;
7527;SDS011;3805;49.006;8.514;2022-12-24T16:15:44;18.10;;;11.00;;
7527;SDS011;3805;49.006;8.514;2022-12-24T16:18:15;22.83;;;14.47;;
7527;SDS011;3805;49.006;8.514;2022-12-24T16:20:49;30.90;;;19.37;;
7527;SDS011;3805;49.006;8.514;2022-12-24T16:23:18;19.33;;;15.00;;
7527;SDS011;3805;49.006;8.514;2022-12-24T16:25:48;24.03;;;15.63;;
7527;SDS011;3805;49.006;8.514;2022-12-24T16:28:17;21.43;;;14.37;;
7527;SDS011;3805;49.006;8.514;2022-12-24T16:30:49;24.80;;;15.07;;
7527;SDS011;3805;49.006;8.514;2022-12-24T16:33:18;27.67;;;18.90;;
7527;SDS011;3805;49.006;8.514;2022-12-24T16:35:48;25.20;;;17.70;;
7527;SDS011;3805;49.006;8.514;2022-12-24T16:38:29;26.03;;;17.93;;
7527;SDS011;3805;49.006;8.514;2022-12-24T16:41:17;28.40;;;18.80;;
7527;SDS011;3805;49.006;8.514;2022-12-24T16:43:46;20.20;;;15.53;;
7527;SDS011;3805;49.006;8.514;2022-12-24T16:46:16;32.07;;;20.27;;
7527;SDS011;3805;49.006;8.514;2022-12-24T16:48:45;22.50;;;16.90;;
7527;SDS011;3805;49.006;8.514;2022-12-24T16:51:16;26.47;;;19.07;;
7527;SDS011;3805;49.006;8.514;2022-12-24T16:53:44;20.43;;;15.90;;
7527;SDS011;3805;49.006;8.514;2022-12-24T16:56:12;20.10;;;17.07;;
7527;SDS011;3805;49.006;8.514;2022-12-24T16:59:01;20.23;;;13.90;;
7527;SDS011;3805;49.006;8.514;2022-12-24T17:01:49;22.13;;;14.00;;
7527;SDS011;3805;49.006;8.514;2022-12-24T17:04:38;20.77;;;12.73;;
7527;SDS011;3805;49.006;8.514;2022-12-24T17:07:28;23.37;;;14.00;;
7527;SDS011;3805;49.006;8.514;2022-12-24T17:10:17;21.03;;;14.73;;
7527;SDS011;3805;49.006;8.514;2022-12-24T17:13:05;23.10;;;14.70;;
7527;SDS011;3805;49.006;8.514;2022-12-24T17:15:54;17.53;;;12.50;;
7527;SDS011;3805;49.006;8.514;2022-12-24T17:18:43;15.77;;;11.13;;
7527;SDS011;3805;49.006;8.514;2022-12-24T17:21:31;13.07;;;9.97;;
7527;SDS011;3805;49.006;8.514;2022-12-24T17:24:21;19.20;;;13.50;;
7527;SDS011;3805;49.006;8.514;2022-12-24T17:27:11;16.23;;;10.80;;
7527;SDS011;3805;49.006;8.514;2022-12-24T17:30:00;13.50;;;10.63;;
7527;SDS011;3805;49.006;8.514;2022-12-24T17:32:48;16.97;;;10.93;;
7527;SDS011;3805;49.006;8.514;2022-12-24T17:35:37;21.23;;;12.67;;
7527;SDS011;3805;49.006;8.514;2022-12-24T17:38:26;19.67;;;12.40;;
7527;SDS011;3805;49.006;8.514;2022-12-24T17:41:17;20.03;;;12.20;;